sensor_id;sensor_type;location;lat;lon;timestamp;pressure;altitude;pressure_sealevel;temperature;humidity
50650;BME280;36621;60.058;30.346;2022-07-22T00:05:29;101331.97;;;21.61;56.62
50650;BME280;36621;60.058;30.346;2022-07-22T00:13:01;101336.06;;;21.55;57.96
50650;BME280;36621;60.058;30.346;2022-07-22T00:20:33;101331.97;;;21.52;58.36
50650;BME280;36621;60.058;30.346;2022-07-22T00:28:06;101335.41;;;21.49;57.14
50650;BME280;36621;60.058;30.346;2022-07-22T00:35:38;101340.97;;;21.40;55.25
50650;BME280;36621;60.058;30.346;2022-07-22T00:43:10;101345.59;;;21.27;55.90
50650;BME280;36621;60.058;30.346;2022-07-22T00:50:48;101332.59;;;21.10;56.00
50650;BME280;36621;60.058;30.346;2022-07-22T00:58:23;101337.19;;;20.97;56.30
50650;BME280;36621;60.058;30.346;2022-07-22T01:05:55;101348.94;;;20.94;57.74
50650;BME280;36621;60.058;30.346;2022-07-22T01:13:28;101346.16;;;20.94;56.38
50650;BME280;36621;60.058;30.346;2022-07-22T01:21:00;101350.09;;;20.93;57.33
50650;BME280;36621;60.058;30.346;2022-07-22T01:28:32;101339.13;;;20.88;56.82
50650;BME280;36621;60.058;30.346;2022-07-22T01:36:06;101334.25;;;20.85;57.97
50650;BME280;36621;60.058;30.346;2022-07-22T01:43:38;101341.44;;;20.95;56.75
50650;BME280;36621;60.058;30.346;2022-07-22T01:51:11;101344.97;;;21.13;57.93
50650;BME280;36621;60.058;30.346;2022-07-22T01:58:44;101355.13;;;22.03;55.82
50650;BME280;36621;60.058;30.346;2022-07-22T02:06:16;101353.28;;;22.59;56.07
50650;BME280;36621;60.058;30.346;2022-07-22T02:13:49;101347.81;;;22.50;56.13
50650;BME280;36621;60.058;30.346;2022-07-22T02:21:21;101348.81;;;22.45;55.89
50650;BME280;36621;60.058;30.346;2022-07-22T02:28:57;101349.56;;;22.33;56.59
50650;BME280;36621;60.058;30.346;2022-07-22T02:36:29;101359.50;;;22.43;56.64
50650;BME280;36621;60.058;30.346;2022-07-22T02:44:02;101359.38;;;23.98;54.53
50650;BME280;36621;60.058;30.346;2022-07-22T02:51:35;101359.81;;;26.69;51.29
50650;BME280;36621;60.058;30.346;2022-07-22T02:59:07;101350.38;;;27.40;49.09
50650;BME280;36621;60.058;30.346;2022-07-22T03:06:40;101354.31;;;25.54;51.83
50650;BME280;36621;60.058;30.346;2022-07-22T03:14:16;101357.63;;;24.71;52.17
50650;BME280;36621;60.058;30.346;2022-07-22T03:21:51;101353.56;;;24.16;53.16
50650;BME280;36621;60.058;30.346;2022-07-22T03:29:23;101356.56;;;24.10;53.43
50650;BME280;36621;60.058;30.346;2022-07-22T03:36:55;101355.22;;;24.57;52.71
50650;BME280;36621;60.058;30.346;2022-07-22T03:44:27;101348.38;;;25.11;51.34
50650;BME280;36621;60.058;30.346;2022-07-22T03:52:01;101349.97;;;24.68;52.03
50650;BME280;36621;60.058;30.346;2022-07-22T03:59:33;101350.56;;;24.90;52.05
50650;BME280;36621;60.058;30.346;2022-07-22T04:07:09;101348.69;;;24.94;51.62
50650;BME280;36621;60.058;30.346;2022-07-22T04:14:41;101352.72;;;24.81;51.81
50650;BME280;36621;60.058;30.346;2022-07-22T04:22:14;101334.28;;;24.92;51.63
50650;BME280;36621;60.058;30.346;2022-07-22T04:29:46;101333.50;;;25.23;51.18
50650;BME280;36621;60.058;30.346;2022-07-22T04:37:20;101337.97;;;25.56;50.66
50650;BME280;36621;60.058;30.346;2022-07-22T04:44:54;101352.97;;;25.64;50.31
50650;BME280;36621;60.058;30.346;2022-07-22T04:52:28;101344.63;;;26.71;49.53
50650;BME280;36621;60.058;30.346;2022-07-22T05:00:01;101341.13;;;28.43;46.15
50650;BME280;36621;60.058;30.346;2022-07-22T05:07:37;101346.03;;;31.03;42.97
50650;BME280;36621;60.058;30.346;2022-07-22T05:15:09;101341.31;;;34.39;38.81
50650;BME280;36621;60.058;30.346;2022-07-22T05:22:53;101341.03;;;36.54;36.00
50650;BME280;36621;60.058;30.346;2022-07-22T05:30:29;101343.38;;;37.95;33.39
50650;BME280;36621;60.058;30.346;2022-07-22T05:38:04;101344.25;;;38.50;32.29
50650;BME280;36621;60.058;30.346;2022-07-22T05:45:37;101337.00;;;39.27;28.46
50650;BME280;36621;60.058;30.346;2022-07-22T05:53:09;101341.38;;;39.53;26.76
